Terminal Aerodrome Forecast
Issued by NWS

Home | Current Version | Previous Version | Text Only | Print | Product List | Glossary On
Versions: 1 2 3 4 5 6 7 8 9 10 11 12 13 14 15 16 17 18 19 20 21 22
000
FTUS41 KBTV 011300 AAA
TAFMPV
TAF AMD
KMPV 011310Z 0113/0212 VRB03KT P6SM SCT030
     FM011500 25005KT P6SM BKN035
     FM020600 VRB03KT 1SM BR BKN005=

USA.gov is the U.S. government's official web portal to all federal, state and local government web resources and services.